Terminal Aerodrome Forecast
Issued by NWS

Home | Current Version | Previous Version | Text Only | Print | Product List | Glossary On
Versions: 1 2 3 4 5 6 7 8 9 10 11 12 13 14
000
FTUS43 KPAH 240520
TAFCGI
TAF
KCGI 240520Z 2406/2506 16010KT P6SM FEW250 WS020/18050KT
     FM240900 18013G21KT P6SM FEW020 SCT250
     FM241400 18014G23KT P6SM SCT025 BKN250
      TEMPO 2414/2418 18012KT BKN025
     FM241800 18014G23KT P6SM BKN035
     FM250000 16011KT P6SM BKN040=

USA.gov is the U.S. government's official web portal to all federal, state and local government web resources and services.